createdAt,value
2022-11-18T00:05:11.757Z,71.70
2022-11-18T00:08:24.263Z,71.80
2022-11-18T00:11:12.564Z,71.10
2022-11-18T00:14:34.844Z,71.80
2022-11-18T00:17:21.657Z,72.10
2022-11-18T00:19:53.942Z,71.70
2022-11-18T00:22:29.709Z,72.00
2022-11-18T00:26:18.549Z,72.90
2022-11-18T00:29:11.540Z,73.00
2022-11-18T00:31:40.206Z,72.50
2022-11-18T00:34:08.559Z,72.50
2022-11-18T00:36:36.580Z,72.10
2022-11-18T00:39:05.995Z,72.00
2022-11-18T00:41:47.887Z,71.60
2022-11-18T00:44:15.910Z,71.50
2022-11-18T00:46:43.926Z,71.90
2022-11-18T00:49:11.943Z,72.20
2022-11-18T00:51:39.898Z,72.00
2022-11-18T00:54:09.336Z,71.80
2022-11-18T00:56:37.770Z,71.60
2022-11-18T00:59:05.871Z,71.20
2022-11-18T01:01:33.936Z,71.10
2022-11-18T01:04:02.218Z,71.10
2022-11-18T01:06:30.658Z,71.40
2022-11-18T01:08:58.756Z,71.50
2022-11-18T01:11:46.052Z,71.50
2022-11-18T01:14:14.160Z,71.60
2022-11-18T01:16:42.264Z,71.70
2022-11-18T01:19:13.997Z,71.70
2022-11-18T01:21:42.187Z,71.70
2022-11-18T01:24:10.264Z,72.60
2022-11-18T01:26:39.711Z,74.20
2022-11-18T01:29:08.713Z,74.40
2022-11-18T01:31:45.663Z,74.40
2022-11-18T01:34:24.738Z,74.40
2022-11-18T01:36:54.535Z,73.70
2022-11-18T01:39:22.621Z,73.70
2022-11-18T01:41:52.074Z,73.70
2022-11-18T01:44:38.883Z,73.70
2022-11-18T01:47:06.980Z,73.70
2022-11-18T01:49:34.945Z,73.60
2022-11-18T01:52:02.972Z,74.10
2022-11-18T01:54:33.061Z,75.10
2022-11-18T01:57:04.567Z,75.40
2022-11-18T01:59:34.923Z,75.70
2022-11-18T02:02:04.635Z,75.50
2022-11-18T02:04:32.740Z,75.40
2022-11-18T02:07:00.719Z,75.50
2022-11-18T02:09:29.831Z,76.50
2022-11-18T02:11:58.032Z,77.50
2022-11-18T02:14:29.152Z,77.60
2022-11-18T02:17:03.362Z,77.50
2022-11-18T02:19:42.405Z,77.50
2022-11-18T02:22:20.068Z,77.00
2022-11-18T02:24:56.905Z,77.00
2022-11-18T02:27:52.566Z,77.00
2022-11-18T02:45:27.870Z,88.20
2022-11-18T02:48:54.575Z,90.10
2022-11-18T02:55:02.539Z,91.80
2022-11-18T02:57:32.361Z,92.60
2022-11-18T03:00:00.599Z,93.00
2022-11-18T03:02:28.897Z,93.40
2022-11-18T03:04:59.667Z,93.40
2022-11-18T03:07:31.628Z,93.20
2022-11-18T03:10:01.981Z,92.60
2022-11-18T03:12:37.886Z,92.30
2022-11-18T03:15:17.325Z,92.20
2022-11-18T03:17:54.619Z,92.00
2022-11-18T03:20:29.299Z,92.20
2022-11-18T03:23:03.859Z,92.30
2022-11-18T03:25:42.230Z,92.30
2022-11-18T03:28:15.693Z,92.20
2022-11-18T03:30:47.916Z,91.90
2022-11-18T03:33:23.374Z,91.70
2022-11-18T03:35:55.629Z,91.60
2022-11-18T03:38:29.022Z,91.10
2022-11-18T03:41:05.023Z,91.20
2022-11-18T03:43:38.066Z,91.20
2022-11-18T03:46:13.186Z,91.30
2022-11-18T03:48:48.510Z,91.70
2022-11-18T03:51:23.882Z,92.20
2022-11-18T03:53:57.258Z,92.60
2022-11-18T03:56:32.417Z,92.20
2022-11-18T03:59:10.701Z,92.20
2022-11-18T04:01:48.653Z,92.00
2022-11-18T04:04:26.272Z,91.50
2022-11-18T04:07:04.666Z,91.00
2022-11-18T04:09:47.541Z,90.80
2022-11-18T04:12:34.372Z,90.40
2022-11-18T04:15:18.557Z,90.40
2022-11-18T04:18:01.844Z,90.30
2022-11-18T04:20:45.041Z,90.20
2022-11-18T04:23:29.601Z,89.10
2022-11-18T04:26:12.893Z,88.60
2022-11-18T04:28:56.112Z,89.80
2022-11-18T04:31:39.429Z,90.80
2022-11-18T04:34:22.693Z,90.90
2022-11-18T04:36:59.572Z,91.20
2022-11-18T04:39:30.558Z,91.70
2022-11-18T04:41:58.601Z,91.70
2022-11-18T04:44:29.048Z,92.00
2022-11-18T04:46:58.802Z,92.10
2022-11-18T04:49:28.488Z,92.20
2022-11-18T04:51:57.561Z,92.10
2022-11-18T04:54:28.592Z,91.90
2022-11-18T04:56:58.681Z,91.60
2022-11-18T04:59:29.032Z,91.20
2022-11-18T05:02:01.109Z,91.10
2022-11-18T05:04:31.205Z,91.00
2022-11-18T05:07:02.430Z,91.10
2022-11-18T05:09:32.443Z,91.00
2022-11-18T05:12:37.019Z,91.00
2022-11-18T05:15:09.263Z,90.90
2022-11-18T05:17:50.657Z,90.50
2022-11-18T05:20:37.409Z,90.90
2022-11-18T05:23:24.529Z,90.50
2022-11-18T05:26:01.279Z,90.50
2022-11-18T05:28:47.193Z,90.70
2022-11-18T05:31:30.367Z,90.00
2022-11-18T05:34:13.962Z,88.80
2022-11-18T05:36:57.207Z,88.10
2022-11-18T05:39:40.491Z,87.00
2022-11-18T05:42:41.107Z,87.80
2022-11-18T05:45:25.695Z,87.90
2022-11-18T05:48:09.246Z,88.30
2022-11-18T05:50:53.011Z,88.50
2022-11-18T05:53:41.924Z,88.30
2022-11-18T05:56:29.256Z,88.00
2022-11-18T05:59:12.634Z,87.80
2022-11-18T06:01:48.663Z,86.50
2022-11-18T06:04:36.194Z,87.10
2022-11-18T06:07:19.700Z,87.70
2022-11-18T06:10:06.295Z,87.90
2022-11-18T06:12:53.604Z,88.40
2022-11-18T06:15:42.190Z,88.30
2022-11-18T06:18:29.662Z,89.20
2022-11-18T06:21:13.194Z,88.60
2022-11-18T06:23:56.905Z,89.10
2022-11-18T06:26:41.200Z,89.10
2022-11-18T06:29:27.674Z,89.20
2022-11-18T06:32:11.384Z,88.10
2022-11-18T06:34:55.985Z,88.00
2022-11-18T06:37:39.213Z,88.40
2022-11-18T06:40:22.546Z,86.70
2022-11-18T06:43:25.424Z,86.30
2022-11-18T06:46:29.287Z,86.10
2022-11-18T06:49:12.857Z,87.00
2022-11-18T06:51:57.356Z,87.10
2022-11-18T06:54:40.588Z,88.00
2022-11-18T06:57:23.873Z,87.90
2022-11-18T07:00:08.605Z,90.40
2022-11-18T07:02:51.877Z,90.30
2022-11-18T07:05:35.064Z,90.40
2022-11-18T07:08:19.598Z,90.40
2022-11-18T07:11:02.992Z,90.30
2022-11-18T07:13:46.929Z,90.00
2022-11-18T07:16:30.839Z,89.40
2022-11-18T07:19:15.188Z,88.90
2022-11-18T07:21:59.568Z,89.10
2022-11-18T07:24:32.843Z,89.10
2022-11-18T07:27:02.425Z,89.50
2022-11-18T07:29:41.888Z,88.90
2022-11-18T07:32:25.029Z,88.70
2022-11-18T07:35:08.358Z,88.60
2022-11-18T07:37:51.579Z,88.70
2022-11-18T07:40:36.658Z,88.80
2022-11-18T07:43:19.953Z,87.50
2022-11-18T07:46:14.543Z,86.60
2022-11-18T07:48:59.006Z,86.20
2022-11-18T07:51:42.306Z,86.70
2022-11-18T07:54:25.715Z,86.40
2022-11-18T07:57:10.258Z,87.20
2022-11-18T07:59:53.581Z,87.80
2022-11-18T08:02:36.771Z,87.90
2022-11-18T08:05:20.192Z,88.20
2022-11-18T08:08:03.486Z,88.50
2022-11-18T08:10:46.925Z,88.00
2022-11-18T08:13:31.685Z,88.30
2022-11-18T08:16:16.931Z,89.40
2022-11-18T08:19:00.988Z,89.10
2022-11-18T08:21:44.347Z,89.00
2022-11-18T08:24:27.764Z,89.30
2022-11-18T08:27:11.021Z,89.40
2022-11-18T08:29:55.617Z,89.80
2022-11-18T08:32:38.884Z,89.50
2022-11-18T08:35:22.479Z,88.70
2022-11-18T08:38:06.394Z,88.60
2022-11-18T08:40:49.766Z,88.70
2022-11-18T08:43:33.006Z,88.90
2022-11-18T08:46:17.747Z,89.10
2022-11-18T08:49:01.454Z,89.50
2022-11-18T08:51:44.643Z,89.90
2022-11-18T08:54:28.063Z,90.30
2022-11-18T08:57:11.424Z,90.70
2022-11-18T08:59:39.821Z,90.40
2022-11-18T09:02:25.451Z,91.10
2022-11-18T09:04:55.580Z,91.40
2022-11-18T09:07:38.965Z,91.40
2022-11-18T09:10:08.206Z,91.40
2022-11-18T09:12:52.640Z,91.00
2022-11-18T09:15:21.594Z,91.30
2022-11-18T09:18:07.470Z,91.50
2022-11-18T09:20:42.337Z,92.00
2022-11-18T09:23:27.845Z,91.80
2022-11-18T09:25:59.764Z,92.20
2022-11-18T09:28:43.494Z,92.20
2022-11-18T09:31:13.709Z,91.90
2022-11-18T09:34:00.553Z,91.60
2022-11-18T09:36:31.638Z,91.20
2022-11-18T09:39:15.333Z,91.50
2022-11-18T09:41:47.490Z,91.10
2022-11-18T09:44:51.184Z,91.30
2022-11-18T09:47:27.335Z,91.40
2022-11-18T09:50:47.119Z,91.50
2022-11-18T09:53:16.152Z,91.30
2022-11-18T09:55:59.759Z,91.10
2022-11-18T09:58:34.957Z,91.10
2022-11-18T10:01:21.060Z,91.20
2022-11-18T10:03:49.488Z,91.20
2022-11-18T10:06:35.168Z,91.40
2022-11-18T10:09:18.469Z,90.90
2022-11-18T10:12:20.417Z,90.80
2022-11-18T10:15:16.758Z,90.70
2022-11-18T10:18:12.793Z,90.80
2022-11-18T10:20:56.102Z,90.80
2022-11-18T10:23:30.898Z,90.70
2022-11-18T10:25:59.136Z,90.60
2022-11-18T10:28:29.990Z,90.80
2022-11-18T10:31:06.818Z,90.60
2022-11-18T10:33:35.592Z,90.70
2022-11-18T10:36:13.876Z,90.80
2022-11-18T10:38:49.499Z,91.00
2022-11-18T10:41:21.580Z,90.80
2022-11-18T10:43:52.794Z,90.80
2022-11-18T10:46:27.148Z,90.70
2022-11-18T10:49:17.342Z,90.70
2022-11-18T10:51:47.529Z,90.80
2022-11-18T10:54:19.745Z,91.00
2022-11-18T10:56:57.477Z,91.20
2022-11-18T10:59:31.814Z,91.00
2022-11-18T11:02:08.405Z,90.80
2022-11-18T11:04:39.457Z,90.80
2022-11-18T11:07:18.493Z,90.60
2022-11-18T11:10:01.430Z,90.50
2022-11-18T11:12:31.031Z,90.60
2022-11-18T11:15:03.142Z,90.60
2022-11-18T11:17:36.725Z,90.60
2022-11-18T11:20:11.605Z,90.40
2022-11-18T11:22:40.039Z,89.80
2022-11-18T11:25:20.640Z,88.90
2022-11-18T11:28:15.853Z,89.50
2022-11-18T11:30:52.591Z,89.30
2022-11-18T11:33:32.270Z,89.50
2022-11-18T11:36:21.718Z,89.30
2022-11-18T11:39:04.687Z,88.60
2022-11-18T11:41:45.175Z,88.70
2022-11-18T11:44:31.418Z,87.70
2022-11-18T11:47:44.749Z,88.50
2022-11-18T11:50:19.036Z,86.70
2022-11-18T11:52:57.690Z,85.90
2022-11-18T11:55:28.129Z,86.70
2022-11-18T11:58:05.246Z,85.90
2022-11-18T12:00:35.019Z,84.80
2022-11-18T12:03:08.521Z,84.10
2022-11-18T12:05:39.301Z,83.60
2022-11-18T12:08:10.906Z,81.30
2022-11-18T12:10:43.716Z,82.80
2022-11-18T12:13:25.749Z,82.70
2022-11-18T12:15:59.905Z,83.20
2022-11-18T12:18:32.004Z,83.80
2022-11-18T12:21:00.110Z,84.50
2022-11-18T12:23:28.620Z,82.90
2022-11-18T12:25:58.393Z,82.60
2022-11-18T12:28:31.403Z,81.00
2022-11-18T12:31:32.349Z,79.70
2022-11-18T12:34:03.340Z,79.80
2022-11-18T12:36:33.574Z,80.10
2022-11-18T12:39:42.030Z,80.30
2022-11-18T12:43:08.268Z,81.60
2022-11-18T12:45:55.481Z,81.90
2022-11-18T12:48:33.523Z,82.10
2022-11-18T12:51:03.612Z,80.00
2022-11-18T12:53:33.967Z,81.30
2022-11-18T12:56:02.110Z,81.70
2022-11-18T12:58:31.644Z,80.00
2022-11-18T13:01:07.773Z,77.90
2022-11-18T13:03:35.968Z,80.50
2022-11-18T13:06:09.389Z,78.80
2022-11-18T13:08:38.865Z,77.50
2022-11-18T13:11:28.061Z,75.70
2022-11-18T13:14:11.569Z,73.20
2022-11-18T13:16:57.894Z,73.70
2022-11-18T13:19:26.361Z,75.50
2022-11-18T13:22:13.110Z,76.00
2022-11-18T13:24:44.972Z,76.00
2022-11-18T13:27:19.578Z,75.50
2022-11-18T13:29:54.249Z,77.00
2022-11-18T13:32:23.652Z,76.60
2022-11-18T13:34:52.682Z,76.80
2022-11-18T13:37:21.527Z,77.30
2022-11-18T13:39:50.304Z,76.70
2022-11-18T13:42:20.225Z,76.60
2022-11-18T13:44:53.113Z,76.90
2022-11-18T13:47:29.043Z,76.50
2022-11-18T13:50:00.444Z,75.70
2022-11-18T13:52:30.045Z,75.40
2022-11-18T13:55:00.183Z,76.90
2022-11-18T13:57:29.146Z,78.30
2022-11-18T14:00:02.119Z,78.90
2022-11-18T14:02:32.961Z,79.80
2022-11-18T14:05:01.268Z,79.30
2022-11-18T14:07:31.980Z,77.70
2022-11-18T14:10:01.925Z,76.10
2022-11-18T14:12:32.423Z,75.30
2022-11-18T14:15:21.552Z,75.30
2022-11-18T14:17:54.183Z,76.30
2022-11-18T14:20:22.721Z,75.30
2022-11-18T14:22:53.136Z,75.00
2022-11-18T14:25:23.719Z,75.70
2022-11-18T14:27:52.558Z,76.40
2022-11-18T14:30:30.297Z,73.50
2022-11-18T14:33:15.646Z,73.90
2022-11-18T14:35:45.066Z,70.90
2022-11-18T14:41:03.452Z,71.50
2022-11-18T14:43:31.648Z,70.20
2022-11-18T14:46:02.291Z,70.80
2022-11-18T14:48:32.774Z,70.20
2022-11-18T14:51:01.045Z,71.20
2022-11-18T14:53:29.417Z,70.90
2022-11-18T14:55:58.819Z,69.50
2022-11-18T14:58:26.998Z,69.40
2022-11-18T15:00:55.306Z,68.50
2022-11-18T15:03:24.906Z,67.90
2022-11-18T15:05:53.056Z,68.70
2022-11-18T15:08:21.035Z,68.70
2022-11-18T15:10:49.138Z,68.50
2022-11-18T15:13:17.260Z,69.00
2022-11-18T15:15:45.301Z,69.10
2022-11-18T15:18:13.321Z,69.50
2022-11-18T15:20:42.730Z,69.40
2022-11-18T15:23:10.937Z,69.60
2022-11-18T15:25:40.782Z,69.50
2022-11-18T15:28:10.698Z,69.60
2022-11-18T15:30:39.248Z,69.60
2022-11-18T15:33:09.206Z,69.50
2022-11-18T15:35:37.599Z,70.00
2022-11-18T15:38:07.049Z,69.70
2022-11-18T15:40:35.177Z,69.60
2022-11-18T15:43:03.217Z,69.50
2022-11-18T15:45:31.287Z,69.50
2022-11-18T15:47:59.291Z,69.50
2022-11-18T15:50:27.378Z,69.50
2022-11-18T15:52:55.818Z,69.30
2022-11-18T15:55:25.237Z,69.40
2022-11-18T15:57:53.241Z,69.60
2022-11-18T16:47:45.560Z,71.20
2022-11-18T16:50:17.093Z,70.80
2022-11-18T16:53:02.161Z,71.10
2022-11-18T16:56:27.453Z,71.50
2022-11-18T17:21:38.795Z,68.90
2022-11-18T17:24:51.953Z,68.80
2022-11-18T17:27:38.076Z,70.00
2022-11-18T17:30:06.878Z,69.70
2022-11-18T17:32:35.515Z,70.40
2022-11-18T17:46:53.165Z,71.00
2022-11-18T17:50:13.260Z,71.20
2022-11-18T17:52:53.536Z,70.80
2022-11-18T17:55:47.640Z,70.40
2022-11-18T18:03:38.472Z,69.90
2022-11-18T18:06:46.375Z,69.60
2022-11-18T18:10:05.548Z,70.20
2022-11-18T18:13:08.244Z,70.60
2022-11-18T18:16:42.096Z,69.80
2022-11-18T18:19:34.298Z,70.10
2022-11-18T18:22:16.005Z,69.60
2022-11-18T18:25:19.182Z,70.60
2022-11-18T18:28:28.405Z,71.00
2022-11-18T18:31:14.289Z,71.60
2022-11-18T18:39:42.369Z,72.70
2022-11-18T18:42:41.021Z,72.80
2022-11-18T18:46:01.400Z,72.20
2022-11-18T18:48:41.636Z,72.30
2022-11-18T18:51:26.557Z,73.20
2022-11-18T18:57:19.661Z,73.50
2022-11-18T18:59:57.532Z,74.30
2022-11-18T19:02:32.224Z,74.40
2022-11-18T19:06:12.117Z,74.60
2022-11-18T19:08:38.522Z,74.20
2022-11-18T19:11:36.488Z,74.10
2022-11-18T19:14:27.111Z,74.80
2022-11-18T19:17:39.674Z,74.00
2022-11-18T19:20:52.027Z,73.60
2022-11-18T19:23:42.822Z,74.00
2022-11-18T19:26:30.237Z,73.40
2022-11-18T19:30:02.325Z,73.40
2022-11-18T19:33:03.392Z,73.20
2022-11-18T19:36:06.936Z,73.10
2022-11-18T19:39:22.048Z,73.20
2022-11-18T19:41:57.054Z,73.10
2022-11-18T19:45:24.121Z,72.40
2022-11-18T19:48:21.475Z,72.50
2022-11-18T19:51:02.537Z,73.10
2022-11-18T19:53:41.920Z,73.50
2022-11-18T19:56:27.370Z,73.00
2022-11-18T19:59:16.329Z,73.00
2022-11-18T20:02:14.501Z,73.00
2022-11-18T20:05:19.063Z,72.90
2022-11-18T20:11:45.338Z,72.70
2022-11-18T20:14:41.666Z,73.00
2022-11-18T20:17:30.970Z,73.60
2022-11-18T20:20:32.556Z,74.20
2022-11-18T20:26:49.000Z,74.60
2022-11-18T20:29:52.686Z,75.50
2022-11-18T20:32:48.239Z,76.20
2022-11-18T20:35:49.502Z,76.10
2022-11-18T20:39:15.887Z,76.20
2022-11-18T20:42:22.032Z,75.70
2022-11-18T20:45:13.245Z,76.40
2022-11-18T20:48:04.469Z,77.30
2022-11-18T20:51:09.486Z,77.20
2022-11-18T20:54:01.482Z,78.00
2022-11-18T20:57:11.058Z,78.60
2022-11-18T21:00:39.547Z,78.20
2022-11-18T21:03:31.900Z,77.90
2022-11-18T21:06:39.559Z,78.40
2022-11-18T21:09:39.621Z,78.60
2022-11-18T21:13:22.799Z,78.60
2022-11-18T21:16:27.568Z,79.10
2022-11-18T21:19:15.429Z,79.40
2022-11-18T21:22:00.216Z,79.50
2022-11-18T21:28:32.819Z,80.20
2022-11-18T21:31:39.819Z,80.60
2022-11-18T21:34:28.005Z,81.30
2022-11-18T21:37:05.391Z,82.30
2022-11-18T21:39:46.084Z,83.10
2022-11-18T21:43:11.346Z,82.50
2022-11-18T21:46:25.228Z,81.80
2022-11-18T21:49:25.797Z,82.10
2022-11-18T21:52:26.723Z,82.00
2022-11-18T21:55:18.328Z,81.60
2022-11-18T21:58:23.427Z,82.00
2022-11-18T22:01:04.702Z,82.90
2022-11-18T22:04:36.741Z,83.90
2022-11-18T22:07:14.603Z,83.80
2022-11-18T22:09:49.791Z,83.50
2022-11-18T22:12:51.577Z,83.80
2022-11-18T22:15:50.639Z,83.20
2022-11-18T22:18:41.484Z,83.20
2022-11-18T22:21:42.360Z,82.80
2022-11-18T22:24:27.616Z,83.00
2022-11-18T22:27:11.917Z,83.60
2022-11-18T22:29:51.886Z,83.40
2022-11-18T22:32:47.218Z,83.80
2022-11-18T22:35:53.522Z,83.80
2022-11-18T22:38:48.956Z,84.90
2022-11-18T22:41:39.990Z,85.00
2022-11-18T22:44:45.215Z,84.60
2022-11-18T22:47:37.788Z,84.00
2022-11-18T22:50:23.863Z,83.70
2022-11-18T22:52:54.175Z,84.70
2022-11-18T22:55:51.463Z,85.10
2022-11-18T22:58:33.657Z,85.90
2022-11-18T23:01:24.264Z,85.60
2022-11-18T23:04:40.279Z,86.00
2022-11-18T23:07:56.467Z,85.90
2022-11-18T23:10:52.499Z,86.70
2022-11-18T23:14:00.133Z,86.50
2022-11-18T23:16:41.343Z,85.90
2022-11-18T23:19:28.921Z,86.30
2022-11-18T23:22:02.197Z,86.90
2022-11-18T23:24:58.058Z,87.20
2022-11-18T23:27:54.159Z,86.40
2022-11-18T23:30:44.597Z,86.80
2022-11-18T23:33:54.010Z,85.90
2022-11-18T23:36:29.992Z,85.50
2022-11-18T23:39:25.135Z,85.90
2022-11-18T23:42:11.547Z,85.30
2022-11-18T23:44:56.064Z,85.00
2022-11-18T23:47:55.227Z,85.00
2022-11-18T23:50:47.537Z,84.80
2022-11-18T23:54:03.671Z,85.40
2022-11-18T23:57:09.871Z,84.50
2022-11-18T23:59:59.910Z,84.10
